createdAt,value
2022-08-02T00:02:24.912Z,98472.75
2022-08-02T00:07:26.844Z,98471.97
2022-08-02T00:12:28.668Z,98462.22
2022-08-02T00:17:30.503Z,98463.28
2022-08-02T00:22:32.460Z,98463.09
2022-08-02T00:27:34.338Z,98455.06
2022-08-02T00:32:36.229Z,98459.31
2022-08-02T00:37:42.378Z,98451.03
2022-08-02T00:42:44.349Z,98467.13
2022-08-02T00:47:46.185Z,98464.97
2022-08-02T00:52:47.999Z,98459.00
2022-08-02T00:57:50.201Z,98459.31
2022-08-02T01:02:52.139Z,98463.84
2022-08-02T01:07:53.954Z,98463.91
2022-08-02T01:12:55.956Z,98459.22
2022-08-02T01:18:10.074Z,98438.91
2022-08-02T01:23:30.749Z,98438.81
2022-08-02T01:28:43.510Z,98445.03
2022-08-02T01:33:53.981Z,98459.97
2022-08-02T01:38:56.391Z,98450.31
2022-08-02T01:44:00.517Z,98446.63
2022-08-02T01:49:08.459Z,98449.38
2022-08-02T01:54:14.509Z,98461.91
2022-08-02T01:59:21.278Z,98465.88
2022-08-02T02:04:25.326Z,98456.63
2022-08-02T02:09:30.712Z,98458.66
2022-08-02T02:14:35.014Z,98477.91
2022-08-02T02:19:38.734Z,98476.38
2022-08-02T02:24:40.601Z,98480.69
2022-08-02T02:29:47.460Z,98474.78
2022-08-02T02:34:51.164Z,98460.63
2022-08-02T02:39:55.284Z,98474.81
2022-08-02T02:44:58.612Z,98467.44
2022-08-02T02:50:01.182Z,98483.19
2022-08-02T02:55:04.093Z,98476.53
2022-08-02T03:00:09.752Z,98478.06
2022-08-02T03:05:13.160Z,98482.81
2022-08-02T03:10:14.960Z,98500.50
2022-08-02T03:15:18.049Z,98504.78
2022-08-02T03:20:20.709Z,98502.44
2022-08-02T03:25:22.552Z,98516.94
2022-08-02T03:30:27.005Z,98514.22
2022-08-02T03:35:29.030Z,98507.94
2022-08-02T03:40:31.800Z,98513.47
2022-08-02T03:45:34.508Z,98506.03
2022-08-02T03:50:37.699Z,98506.00
2022-08-02T03:55:40.255Z,98501.63
2022-08-02T04:00:42.148Z,98510.56
2022-08-02T04:06:03.948Z,98506.22
2022-08-02T04:11:30.062Z,98508.56
2022-08-02T04:16:39.996Z,98506.09
2022-08-02T04:21:50.489Z,98506.34
2022-08-02T04:27:06.477Z,98514.50
2022-08-02T04:32:22.203Z,98513.69
2022-08-02T04:37:25.193Z,98534.41
2022-08-02T04:42:27.531Z,98535.25
2022-08-02T04:48:01.855Z,98553.78
2022-08-02T04:52:51.190Z,98569.47
2022-08-02T04:57:55.838Z,98566.38
2022-08-02T05:02:59.362Z,98565.22
2022-08-02T05:08:01.378Z,98570.44
2022-08-02T05:13:05.522Z,98566.91
2022-08-02T05:18:07.382Z,98572.75
2022-08-02T05:23:09.194Z,98571.13
2022-08-02T05:28:11.798Z,98573.41
2022-08-02T05:33:14.110Z,98571.72
2022-08-02T05:38:15.990Z,98568.50
2022-08-02T05:43:17.831Z,98570.84
2022-08-02T05:48:25.474Z,98564.34
2022-08-02T05:53:34.148Z,98569.66
2022-08-02T05:58:54.734Z,98562.47
2022-08-02T06:03:59.617Z,98563.38
2022-08-02T06:09:08.791Z,98570.91
2022-08-02T06:14:11.023Z,98579.00
2022-08-02T06:19:13.056Z,98574.53
2022-08-02T06:24:19.068Z,98586.09
2022-08-02T06:29:23.353Z,98586.03
2022-08-02T06:34:25.339Z,98603.75
2022-08-02T06:39:44.969Z,98585.84
2022-08-02T06:44:48.959Z,98580.63
2022-08-02T06:49:54.166Z,98578.16
2022-08-02T06:54:58.755Z,98576.25
2022-08-02T07:00:06.698Z,98582.41
2022-08-02T07:05:09.302Z,98572.81
2022-08-02T07:10:11.701Z,98583.09
2022-08-02T07:15:13.909Z,98578.16
2022-08-02T07:20:16.376Z,98588.84
2022-08-02T07:25:18.454Z,98586.09
2022-08-02T07:30:20.701Z,98584.84
2022-08-02T07:35:22.655Z,98585.31
2022-08-02T07:40:25.231Z,98570.91
2022-08-02T07:45:28.116Z,98563.53
2022-08-02T07:50:30.106Z,98568.50
2022-08-02T07:55:39.405Z,98562.06
2022-08-02T08:00:43.844Z,98551.75
2022-08-02T08:05:45.770Z,98563.63
2022-08-02T08:10:47.632Z,98564.22
2022-08-02T08:15:51.596Z,98557.31
2022-08-02T08:20:54.837Z,98558.72
2022-08-02T08:25:56.805Z,98549.34
2022-08-02T08:30:58.822Z,98547.50
2022-08-02T08:36:02.499Z,98549.28
2022-08-02T08:41:04.740Z,98549.56
2022-08-02T08:46:12.294Z,98534.91
2022-08-02T08:51:19.429Z,98543.69
2022-08-02T08:56:21.679Z,98542.81
2022-08-02T09:01:23.782Z,98537.19
2022-08-02T09:06:26.175Z,98539.63
2022-08-02T09:11:28.025Z,98536.06
2022-08-02T09:16:37.124Z,98537.09
2022-08-02T09:21:39.053Z,98539.88
2022-08-02T09:26:42.467Z,98519.16
2022-08-02T09:31:49.973Z,98529.34
2022-08-02T09:36:54.371Z,98541.44
2022-08-02T09:42:10.497Z,98525.59
2022-08-02T09:47:17.142Z,98513.56
2022-08-02T09:52:37.296Z,98512.66
2022-08-02T09:57:51.089Z,98508.56
2022-08-02T10:03:22.614Z,98499.81
2022-08-02T10:08:26.017Z,98497.66
2022-08-02T10:13:32.166Z,98494.75
2022-08-02T10:18:39.788Z,98495.50
2022-08-02T10:23:44.219Z,98490.03
2022-08-02T10:29:04.020Z,98494.84
2022-08-02T10:34:10.316Z,98488.84
2022-08-02T10:39:30.901Z,98473.09
2022-08-02T10:44:34.067Z,98467.94
2022-08-02T10:49:49.669Z,98457.00
2022-08-02T10:54:59.424Z,98458.41
2022-08-02T11:00:17.238Z,98450.50
2022-08-02T11:05:43.235Z,98453.25
2022-08-02T11:10:45.653Z,98459.34
2022-08-02T11:16:06.531Z,98448.09
2022-08-02T11:21:28.350Z,98452.91
2022-08-02T11:26:32.960Z,98454.91
2022-08-02T11:31:43.681Z,98456.56
2022-08-02T11:36:53.474Z,98454.03
2022-08-02T11:42:01.103Z,98459.06
2022-08-02T11:47:03.605Z,98463.88
2022-08-02T11:52:06.898Z,98450.94
2022-08-02T11:57:20.273Z,98456.09
2022-08-02T12:02:28.934Z,98446.16
2022-08-02T12:07:35.362Z,98442.59
2022-08-02T12:12:52.204Z,98445.03
2022-08-02T12:18:15.061Z,98438.59
2022-08-02T12:23:16.917Z,98426.75
2022-08-02T12:28:35.032Z,98408.16
2022-08-02T12:33:51.597Z,98393.22
2022-08-02T12:38:58.776Z,98394.47
2022-08-02T12:44:01.541Z,98404.31
2022-08-02T12:49:18.326Z,98412.69
2022-08-02T12:54:31.124Z,98401.50
2022-08-02T12:59:38.947Z,98397.53
2022-08-02T13:04:41.562Z,98404.88
2022-08-02T13:10:02.638Z,98402.59
2022-08-02T13:15:12.577Z,98388.41
2022-08-02T13:20:31.777Z,98393.53
2022-08-02T13:25:33.723Z,98391.78
2022-08-02T13:30:35.575Z,98397.81
2022-08-02T13:35:37.429Z,98395.94
2022-08-02T13:41:06.403Z,98393.91
2022-08-02T13:46:08.323Z,98384.53
2022-08-02T13:51:12.213Z,98368.88
2022-08-02T13:56:16.872Z,98375.44
2022-08-02T14:01:18.826Z,98368.28
2022-08-02T14:06:21.811Z,98368.84
2022-08-02T14:11:23.801Z,98376.41
2022-08-02T14:16:33.094Z,98357.09
2022-08-02T14:21:46.706Z,98354.16
2022-08-02T14:26:50.461Z,98341.97
2022-08-02T14:31:52.289Z,98353.28
2022-08-02T14:36:55.601Z,98336.41
2022-08-02T14:41:59.881Z,98343.38
2022-08-02T14:47:02.588Z,98335.97
2022-08-02T14:52:10.263Z,98343.44
2022-08-02T14:57:12.250Z,98340.91
2022-08-02T15:02:14.752Z,98342.84
2022-08-02T15:07:16.678Z,98341.41
2022-08-02T15:12:19.010Z,98339.59
2022-08-02T15:17:20.850Z,98342.81
2022-08-02T15:22:22.701Z,98336.22
2022-08-02T15:27:26.113Z,98322.81
2022-08-02T15:32:27.990Z,98312.72
2022-08-02T15:37:32.309Z,98316.50
2022-08-02T15:42:34.118Z,98327.22
2022-08-02T15:47:36.196Z,98322.38
2022-08-02T15:52:38.069Z,98322.66
2022-08-02T15:57:39.967Z,98314.47
2022-08-02T16:02:42.030Z,98320.13
2022-08-02T16:07:44.889Z,98313.56
2022-08-02T16:12:46.835Z,98317.69
2022-08-02T16:17:54.423Z,98314.69
2022-08-02T16:22:56.574Z,98313.69
2022-08-02T16:28:07.601Z,98304.75
2022-08-02T16:33:09.990Z,98309.78
2022-08-02T16:38:12.174Z,98302.66
2022-08-02T16:43:14.027Z,98308.81
2022-08-02T16:48:15.936Z,98307.25
2022-08-02T16:53:36.767Z,98307.94
2022-08-02T16:58:39.993Z,98311.75
2022-08-02T17:03:56.138Z,98311.19
2022-08-02T17:08:59.198Z,98306.56
2022-08-02T17:14:01.038Z,98308.31
2022-08-02T17:19:02.969Z,98315.09
2022-08-02T17:24:08.546Z,98314.25
2022-08-02T17:29:15.662Z,98328.84
2022-08-02T17:34:19.696Z,98321.56
2022-08-02T17:39:33.899Z,98326.75
2022-08-02T17:44:38.500Z,98328.28
2022-08-02T17:49:44.242Z,98323.38
2022-08-02T17:54:51.042Z,98321.75
2022-08-02T18:00:03.560Z,98310.19
2022-08-02T18:05:11.897Z,98321.50
2022-08-02T18:10:15.522Z,98321.81
2022-08-02T18:15:20.044Z,98323.41
2022-08-02T18:20:22.284Z,98328.16
2022-08-02T18:25:37.451Z,98330.81
2022-08-02T18:30:46.505Z,98326.38
2022-08-02T18:35:48.909Z,98326.97
2022-08-02T18:40:51.407Z,98336.66
2022-08-02T18:46:06.874Z,98341.56
2022-08-02T18:51:16.434Z,98330.34
2022-08-02T19:01:50.680Z,98342.38
2022-08-02T19:06:53.020Z,98342.13
2022-08-02T19:11:54.822Z,98354.25
2022-08-02T19:16:59.520Z,98342.84
2022-08-02T19:22:17.777Z,98356.34
2022-08-02T19:27:32.228Z,98354.41
2022-08-02T19:32:40.637Z,98355.25
2022-08-02T19:37:45.000Z,98359.78
2022-08-02T19:44:20.747Z,98358.69
2022-08-02T19:48:15.567Z,98365.03
2022-08-02T19:53:17.724Z,98370.16
2022-08-02T19:58:19.522Z,98376.31
2022-08-02T20:03:50.811Z,98371.78
2022-08-02T20:08:53.470Z,98387.44
2022-08-02T20:13:59.222Z,98377.97
2022-08-02T20:19:04.526Z,98376.06
2022-08-02T20:24:07.568Z,98380.50
2022-08-02T20:29:09.805Z,98394.06
2022-08-02T20:34:11.905Z,98391.22
2022-08-02T20:39:15.080Z,98400.41
2022-08-02T20:44:30.876Z,98399.63
2022-08-02T20:49:41.008Z,98390.22
2022-08-02T20:54:43.713Z,98395.75
2022-08-02T20:59:51.906Z,98397.81
2022-08-02T21:04:54.040Z,98399.44
2022-08-02T21:09:56.624Z,98398.91
2022-08-02T21:14:59.453Z,98387.38
2022-08-02T21:20:01.904Z,98379.34
2022-08-02T21:25:04.429Z,98377.16
2022-08-02T21:30:11.325Z,98380.22
2022-08-02T21:35:16.866Z,98377.09
2022-08-02T21:40:19.397Z,98376.50
2022-08-02T21:45:22.897Z,98376.97
2022-08-02T21:50:25.741Z,98377.53
2022-08-02T21:56:00.706Z,98377.38
2022-08-02T22:00:50.091Z,98379.19
2022-08-02T22:05:51.924Z,98379.75
2022-08-02T22:11:01.645Z,98376.56
2022-08-02T22:16:05.735Z,98370.28
2022-08-02T22:21:14.250Z,98376.72
2022-08-02T22:26:19.417Z,98375.94
2022-08-02T22:31:40.674Z,98382.72
2022-08-02T22:36:44.311Z,98375.84
2022-08-02T22:42:01.745Z,98379.81
2022-08-02T22:47:14.427Z,98381.16
2022-08-02T22:52:17.198Z,98387.69
2022-08-02T22:57:30.446Z,98386.34
2022-08-02T22:58:46.367Z,98344.25
2022-08-02T23:02:33.241Z,98379.34
2022-08-02T23:07:36.306Z,98384.00
2022-08-02T23:12:40.771Z,98391.16
2022-08-02T23:18:01.023Z,98387.59
2022-08-02T23:23:03.003Z,98390.25
2022-08-02T23:28:13.518Z,98394.06
2022-08-02T23:33:15.563Z,98389.44
2022-08-02T23:38:17.382Z,98390.13
2022-08-02T23:43:19.219Z,98392.72
2022-08-02T23:48:21.010Z,98391.47
2022-08-02T23:53:22.824Z,98387.97
2022-08-02T23:58:24.731Z,98393.97
